createdAt,value
2022-08-11T00:02:02.882Z,99517.93
2022-08-11T00:04:39.537Z,99518.38
2022-08-11T00:07:13.059Z,99510.84
2022-08-11T00:09:46.266Z,99510.42
2022-08-11T00:12:19.875Z,99517.58
2022-08-11T00:15:02.673Z,99522.02
2022-08-11T00:17:36.707Z,99530.52
2022-08-11T00:20:16.512Z,99534.13
2022-08-11T00:22:50.291Z,99534.63
2022-08-11T00:25:24.287Z,99534.69
2022-08-11T00:27:56.462Z,99533.38
2022-08-11T00:30:32.229Z,99532.05
2022-08-11T00:33:05.270Z,99531.64
2022-08-11T00:35:52.114Z,99531.64
2022-08-11T00:38:14.239Z,99531.62
2022-08-11T00:41:12.995Z,99529.81
2022-08-11T00:44:39.403Z,99534.27
2022-08-11T00:47:56.296Z,99527.60
2022-08-11T00:50:44.659Z,99527.17
2022-08-11T00:53:47.174Z,99528.07
2022-08-11T00:57:02.524Z,99524.16
2022-08-11T01:00:05.821Z,99528.16
2022-08-11T01:03:11.361Z,99525.09
2022-08-11T01:06:33.168Z,99521.13
2022-08-11T01:09:34.182Z,99523.84
2022-08-11T01:12:42.768Z,99524.34
2022-08-11T01:15:57.555Z,99524.34
2022-08-11T01:19:11.112Z,99518.17
2022-08-11T01:22:09.487Z,99518.19
2022-08-11T01:25:10.771Z,99504.89
2022-08-11T01:28:08.243Z,99504.89
2022-08-11T01:31:00.868Z,99512.91
2022-08-11T01:34:05.714Z,99513.37
2022-08-11T01:36:56.778Z,99513.37
2022-08-11T01:39:50.419Z,99516.52
2022-08-11T01:42:53.922Z,99513.00
2022-08-11T01:45:44.591Z,99510.31
2022-08-11T01:48:59.830Z,99511.19
2022-08-11T01:52:03.373Z,99517.85
2022-08-11T01:54:50.024Z,99517.85
2022-08-11T01:57:32.028Z,99522.76
2022-08-11T02:00:12.429Z,99525.08
2022-08-11T02:03:06.381Z,99525.08
2022-08-11T02:05:59.997Z,99528.19
2022-08-11T02:08:50.945Z,99527.30
2022-08-11T02:11:35.725Z,99529.57
2022-08-11T02:14:40.285Z,99527.79
2022-08-11T02:17:22.761Z,99522.01
2022-08-11T02:20:22.160Z,99525.58
2022-08-11T02:24:05.387Z,99531.80
2022-08-11T02:26:19.165Z,99538.92
2022-08-11T02:29:18.066Z,99538.92
2022-08-11T02:32:30.657Z,99540.62
2022-08-11T02:35:13.505Z,99540.62
2022-08-11T02:38:17.907Z,99534.84
2022-08-11T02:41:34.006Z,99540.58
2022-08-11T02:44:20.101Z,99548.09
2022-08-11T02:47:36.214Z,99544.95
2022-08-11T02:50:16.224Z,99544.95
2022-08-11T02:53:05.472Z,99559.63
2022-08-11T02:55:57.057Z,99551.20
2022-08-11T02:58:41.575Z,99551.20
2022-08-11T03:01:28.408Z,99549.43
2022-08-11T03:04:14.972Z,99552.98
2022-08-11T03:07:01.123Z,99554.73
2022-08-11T03:09:47.923Z,99564.06
2022-08-11T03:12:43.282Z,99577.88
2022-08-11T03:15:40.045Z,99579.63
2022-08-11T03:18:36.273Z,99583.11
2022-08-11T03:22:01.605Z,99583.11
2022-08-11T03:24:24.862Z,99566.18
2022-08-11T03:27:22.341Z,99569.21
2022-08-11T03:30:43.947Z,99570.05
2022-08-11T03:33:48.502Z,99568.25
2022-08-11T03:37:16.527Z,99577.50
2022-08-11T03:39:58.164Z,99569.01
2022-08-11T03:43:03.217Z,99573.85
2022-08-11T03:46:01.276Z,99579.14
2022-08-11T03:49:11.212Z,99585.75
2022-08-11T03:52:20.818Z,99585.75
2022-08-11T03:55:07.769Z,99574.56
2022-08-11T03:58:11.057Z,99576.30
2022-08-11T04:01:08.179Z,99574.03
2022-08-11T04:04:00.590Z,99578.92
2022-08-11T04:06:57.928Z,99571.78
2022-08-11T04:09:58.085Z,99577.11
2022-08-11T04:12:47.779Z,99584.19
2022-08-11T04:16:11.112Z,99605.47
2022-08-11T04:19:10.068Z,99608.53
2022-08-11T04:22:08.651Z,99604.04
2022-08-11T04:25:23.702Z,99616.05
2022-08-11T04:28:33.623Z,99614.28
2022-08-11T04:31:50.342Z,99612.03
2022-08-11T04:34:36.769Z,99614.63
2022-08-11T04:37:35.880Z,99619.41
2022-08-11T04:40:21.825Z,99621.42
2022-08-11T04:43:32.776Z,99622.52
2022-08-11T04:46:37.472Z,99622.20
2022-08-11T04:50:07.423Z,99620.91
2022-08-11T04:53:14.888Z,99620.08
2022-08-11T04:56:28.471Z,99625.46
2022-08-11T04:59:44.658Z,99629.25
2022-08-11T05:02:51.225Z,99627.77
2022-08-11T05:05:34.079Z,99627.22
2022-08-11T05:08:37.135Z,99632.95
2022-08-11T05:11:31.871Z,99636.03
2022-08-11T05:14:39.236Z,99638.56
2022-08-11T05:17:34.288Z,99627.72
2022-08-11T05:20:29.479Z,99629.38
2022-08-11T05:23:24.027Z,99628.31
2022-08-11T05:26:47.373Z,99627.22
2022-08-11T05:29:20.174Z,99623.39
2022-08-11T05:32:13.123Z,99632.14
2022-08-11T05:34:55.559Z,99635.09
2022-08-11T05:37:36.077Z,99639.48
2022-08-11T05:40:30.874Z,99642.93
2022-08-11T05:43:26.423Z,99637.93
2022-08-11T05:46:24.172Z,99633.33
2022-08-11T05:49:14.937Z,99636.27
2022-08-11T05:52:13.051Z,99638.38
2022-08-11T05:54:59.474Z,99635.61
2022-08-11T05:57:45.436Z,99634.16
2022-08-11T06:00:11.151Z,99633.07
2022-08-11T06:02:57.903Z,99628.45
2022-08-11T06:05:44.150Z,99632.34
2022-08-11T06:08:15.302Z,99634.44
2022-08-11T06:10:48.733Z,99631.59
2022-08-11T06:13:23.151Z,99620.34
2022-08-11T06:15:56.334Z,99625.12
2022-08-11T06:18:30.673Z,99628.04
2022-08-11T06:21:03.800Z,99630.56
2022-08-11T06:23:38.423Z,99625.55
2022-08-11T06:26:13.064Z,99633.52
2022-08-11T06:28:47.351Z,99629.77
2022-08-11T06:31:26.530Z,99624.22
2022-08-11T06:34:27.724Z,99630.33
2022-08-11T06:37:22.244Z,99626.56
2022-08-11T06:40:08.870Z,99633.11
2022-08-11T06:42:51.925Z,99631.55
2022-08-11T06:46:04.847Z,99624.66
2022-08-11T06:48:40.148Z,99626.70
2022-08-11T06:51:13.381Z,99626.52
2022-08-11T06:54:03.589Z,99633.05
2022-08-11T06:57:26.254Z,99628.36
2022-08-11T06:59:49.425Z,99624.53
2022-08-11T07:02:34.286Z,99622.87
2022-08-11T07:05:29.888Z,99614.56
2022-08-11T07:08:35.843Z,99617.48
2022-08-11T07:11:33.185Z,99615.38
2022-08-11T07:14:24.679Z,99624.12
2022-08-11T07:16:59.007Z,99625.73
2022-08-11T07:19:50.529Z,99626.83
2022-08-11T07:22:42.571Z,99627.55
2022-08-11T07:25:35.515Z,99626.00
2022-08-11T07:28:31.720Z,99627.59
2022-08-11T07:31:09.260Z,99626.56
2022-08-11T07:34:08.335Z,99630.03
2022-08-11T07:36:31.026Z,99633.05
2022-08-11T07:39:05.086Z,99627.08
2022-08-11T07:41:39.410Z,99625.95
2022-08-11T07:44:11.897Z,99622.67
2022-08-11T07:47:05.153Z,99624.71
2022-08-11T07:49:57.437Z,99620.56
2022-08-11T07:52:34.355Z,99625.26
2022-08-11T07:55:17.238Z,99625.47
2022-08-11T07:58:16.068Z,99623.95
2022-08-11T08:01:10.396Z,99623.84
2022-08-11T08:03:59.784Z,99615.17
2022-08-11T08:06:52.496Z,99619.10
2022-08-11T08:09:45.023Z,99622.55
2022-08-11T08:12:36.446Z,99623.18
2022-08-11T08:15:30.317Z,99627.50
2022-08-11T08:18:09.376Z,99621.88
2022-08-11T08:20:51.046Z,99625.31
2022-08-11T08:23:35.965Z,99616.12
2022-08-11T08:26:22.757Z,99619.02
2022-08-11T08:28:58.265Z,99614.38
2022-08-11T08:31:31.475Z,99615.55
2022-08-11T08:34:04.926Z,99623.46
2022-08-11T08:36:38.457Z,99620.22
2022-08-11T08:39:11.358Z,99630.09
2022-08-11T08:41:45.824Z,99614.29
2022-08-11T08:44:37.712Z,99609.20
2022-08-11T08:46:58.304Z,99614.92
2022-08-11T08:49:46.636Z,99612.05
2022-08-11T08:52:30.557Z,99610.88
2022-08-11T08:55:03.380Z,99607.06
2022-08-11T08:57:39.815Z,99598.94
2022-08-11T09:00:20.718Z,99608.23
2022-08-11T09:02:51.012Z,99601.78
2022-08-11T09:05:25.389Z,99608.41
2022-08-11T09:07:58.999Z,99603.69
2022-08-11T09:10:33.159Z,99601.83
2022-08-11T09:13:09.363Z,99605.75
2022-08-11T09:15:42.312Z,99592.16
2022-08-11T09:18:15.320Z,99595.76
2022-08-11T09:20:49.812Z,99597.37
2022-08-11T09:24:07.509Z,99593.67
2022-08-11T09:26:33.735Z,99599.55
2022-08-11T09:29:07.170Z,99595.77
2022-08-11T09:31:40.661Z,99584.39
2022-08-11T09:34:14.764Z,99597.77
2022-08-11T09:37:05.800Z,99586.67
2022-08-11T09:39:59.729Z,99579.79
2022-08-11T09:42:50.745Z,99584.61
2022-08-11T09:45:23.851Z,99581.42
2022-08-11T09:47:57.441Z,99582.23
2022-08-11T09:50:32.280Z,99577.22
2022-08-11T09:53:36.826Z,99574.03
2022-08-11T09:55:42.007Z,99581.14
2022-08-11T09:58:42.516Z,99576.41
2022-08-11T10:00:54.057Z,99570.87
2022-08-11T10:03:30.726Z,99579.64
2022-08-11T10:06:33.147Z,99578.57
2022-08-11T10:08:58.790Z,99565.48
2022-08-11T10:11:32.215Z,99574.25
2022-08-11T10:14:33.343Z,99573.15
2022-08-11T10:17:00.934Z,99574.30
2022-08-11T10:19:38.062Z,99568.30
2022-08-11T10:22:29.108Z,99568.62
2022-08-11T10:25:22.053Z,99578.36
2022-08-11T10:28:17.767Z,99578.15
2022-08-11T10:30:49.606Z,99565.05
2022-08-11T10:33:57.592Z,99564.45
2022-08-11T10:36:16.319Z,99568.70
2022-08-11T10:38:51.794Z,99561.69
2022-08-11T10:42:08.305Z,99566.81
2022-08-11T10:44:20.700Z,99563.24
2022-08-11T10:47:12.600Z,99564.84
2022-08-11T10:49:47.230Z,99560.39
2022-08-11T10:52:37.934Z,99559.43
2022-08-11T10:55:28.980Z,99553.89
2022-08-11T10:58:19.856Z,99559.50
2022-08-11T11:00:56.011Z,99556.03
2022-08-11T11:03:31.479Z,99555.62
2022-08-11T11:06:45.125Z,99558.25
2022-08-11T11:09:34.038Z,99558.11
2022-08-11T11:12:45.409Z,99543.58
2022-08-11T11:15:39.262Z,99547.34
2022-08-11T11:18:20.301Z,99543.87
2022-08-11T11:21:15.343Z,99539.86
2022-08-11T11:24:29.710Z,99543.56
2022-08-11T11:27:13.417Z,99539.20
2022-08-11T11:30:03.121Z,99541.23
2022-08-11T11:33:20.116Z,99542.67
2022-08-11T11:36:15.820Z,99550.19
2022-08-11T11:38:49.349Z,99549.77
2022-08-11T11:41:28.084Z,99548.23
2022-08-11T11:44:02.264Z,99547.52
2022-08-11T11:46:39.203Z,99550.86
2022-08-11T11:49:15.991Z,99540.56
2022-08-11T11:51:49.962Z,99540.90
2022-08-11T11:54:26.804Z,99537.41
2022-08-11T11:57:02.079Z,99536.58
2022-08-11T11:59:53.502Z,99537.67
2022-08-11T12:02:28.398Z,99556.40
2022-08-11T12:05:02.355Z,99545.91
2022-08-11T12:07:57.033Z,99541.36
2022-08-11T12:10:30.642Z,99541.20
2022-08-11T12:13:22.845Z,99546.09
2022-08-11T12:16:32.326Z,99546.73
2022-08-11T12:18:36.349Z,99552.86
2022-08-11T12:21:10.791Z,99549.28
2022-08-11T12:24:04.758Z,99545.22
2022-08-11T12:27:15.024Z,99551.02
2022-08-11T12:29:32.332Z,99539.24
2022-08-11T12:32:08.193Z,99543.30
2022-08-11T12:34:41.328Z,99539.24
2022-08-11T12:37:17.268Z,99542.44
2022-08-11T12:40:49.595Z,99538.69
2022-08-11T12:43:20.748Z,99539.85
2022-08-11T12:45:41.542Z,99536.17
2022-08-11T12:48:59.910Z,99529.33
2022-08-11T12:52:00.848Z,99537.26
2022-08-11T12:54:33.708Z,99534.77
2022-08-11T12:57:37.247Z,99530.56
2022-08-11T13:00:24.699Z,99529.91
2022-08-11T13:03:16.103Z,99530.03
2022-08-11T13:05:50.723Z,99530.17
2022-08-11T13:08:25.932Z,99529.05
2022-08-11T13:11:19.245Z,99521.00
2022-08-11T13:13:57.848Z,99530.13
2022-08-11T13:16:39.792Z,99532.04
2022-08-11T13:19:13.538Z,99538.46
2022-08-11T13:21:46.680Z,99537.67
2022-08-11T13:24:19.871Z,99540.86
2022-08-11T13:26:53.187Z,99538.75
2022-08-11T13:29:28.313Z,99536.67
2022-08-11T13:32:02.088Z,99542.95
2022-08-11T13:34:37.533Z,99540.73
2022-08-11T13:37:13.363Z,99542.95
2022-08-11T13:39:48.018Z,99541.59
2022-08-11T13:42:22.711Z,99547.42
2022-08-11T13:44:56.565Z,99543.92
2022-08-11T13:47:30.178Z,99541.29
2022-08-11T13:50:03.688Z,99543.09
2022-08-11T13:52:39.655Z,99539.52
2022-08-11T13:55:51.199Z,99538.66
2022-08-11T13:58:18.358Z,99534.67
2022-08-11T14:00:32.060Z,99533.77
2022-08-11T14:03:09.421Z,99532.42
2022-08-11T14:05:49.337Z,99528.77
2022-08-11T14:08:37.085Z,99525.66
2022-08-11T14:12:21.691Z,99517.55
2022-08-11T14:13:58.907Z,99517.95
2022-08-11T14:16:34.638Z,99513.11
2022-08-11T14:19:11.641Z,99508.30
2022-08-11T14:22:07.685Z,99515.69
2022-08-11T14:24:53.189Z,99508.61
2022-08-11T14:28:32.503Z,99514.95
2022-08-11T14:30:02.834Z,99512.67
2022-08-11T14:32:35.942Z,99511.31
2022-08-11T14:35:12.021Z,99510.91
2022-08-11T14:37:45.109Z,99507.48
2022-08-11T14:40:20.974Z,99496.39
2022-08-11T14:43:11.584Z,99496.08
2022-08-11T14:46:03.607Z,99497.13
2022-08-11T14:48:38.182Z,99498.27
2022-08-11T14:51:11.066Z,99495.33
2022-08-11T14:53:58.327Z,99495.40
2022-08-11T14:56:37.341Z,99495.05
2022-08-11T14:59:11.393Z,99493.77
2022-08-11T15:02:01.110Z,99488.09
2022-08-11T15:04:36.637Z,99487.78
2022-08-11T15:07:16.805Z,99483.93
2022-08-11T15:10:11.830Z,99484.48
2022-08-11T15:12:33.357Z,99491.31
2022-08-11T15:15:14.574Z,99482.78
2022-08-11T15:17:49.649Z,99486.49
2022-08-11T15:20:42.152Z,99480.36
2022-08-11T15:23:32.846Z,99476.03
2022-08-11T15:26:55.185Z,99482.95
2022-08-11T15:29:49.547Z,99491.70
2022-08-11T15:32:23.101Z,99495.12
2022-08-11T15:35:21.628Z,99494.98
2022-08-11T15:37:59.808Z,99495.28
2022-08-11T15:40:55.519Z,99495.61
2022-08-11T15:44:00.269Z,99499.44
2022-08-11T15:46:43.704Z,99492.14
2022-08-11T15:50:11.391Z,99484.84
2022-08-11T15:52:06.040Z,99472.12
2022-08-11T15:54:42.434Z,99469.74
2022-08-11T15:57:39.425Z,99474.05
2022-08-11T16:00:29.438Z,99468.48
2022-08-11T16:03:20.409Z,99473.33
2022-08-11T16:05:54.164Z,99470.33
2022-08-11T16:08:32.951Z,99477.62
2022-08-11T16:11:03.966Z,99480.86
2022-08-11T16:13:42.775Z,99477.73
2022-08-11T16:16:16.756Z,99477.86
2022-08-11T16:18:58.371Z,99475.34
2022-08-11T16:21:40.984Z,99472.78
2022-08-11T16:27:01.359Z,99472.84
2022-08-11T16:27:10.190Z,99479.38
2022-08-11T16:29:26.729Z,99474.52
2022-08-11T16:32:18.325Z,99480.98
2022-08-11T16:35:19.402Z,99472.54
2022-08-11T16:38:11.508Z,99473.02
2022-08-11T16:40:45.440Z,99474.78
2022-08-11T16:43:36.603Z,99479.22
2022-08-11T16:46:27.547Z,99472.48
2022-08-11T16:48:59.601Z,99472.95
2022-08-11T16:51:31.485Z,99468.55
2022-08-11T16:54:05.408Z,99473.02
2022-08-11T16:56:42.533Z,99475.30
2022-08-11T16:59:23.534Z,99477.18
2022-08-11T17:02:00.413Z,99472.72
2022-08-11T17:05:10.222Z,99474.60
2022-08-11T17:08:01.271Z,99469.75
2022-08-11T17:10:57.779Z,99475.65
2022-08-11T17:13:31.270Z,99479.36
2022-08-11T17:16:07.944Z,99481.30
2022-08-11T17:19:01.593Z,99487.27
2022-08-11T17:21:43.848Z,99492.32
2022-08-11T17:24:15.607Z,99486.56
2022-08-11T17:26:58.261Z,99487.97
2022-08-11T17:29:54.347Z,99484.47
2022-08-11T17:32:55.625Z,99484.91
2022-08-11T17:35:33.602Z,99483.23
2022-08-11T17:38:18.067Z,99480.59
2022-08-11T17:41:15.782Z,99486.05
2022-08-11T17:44:05.914Z,99484.33
2022-08-11T17:46:55.729Z,99492.95
2022-08-11T17:49:28.631Z,99481.80
2022-08-11T17:52:18.412Z,99491.77
2022-08-11T17:55:08.074Z,99484.73
2022-08-11T17:57:58.290Z,99483.46
2022-08-11T18:00:31.781Z,99490.30
2022-08-11T18:03:21.206Z,99484.64
2022-08-11T18:05:53.622Z,99481.13
2022-08-11T18:08:43.799Z,99481.58
2022-08-11T18:12:06.679Z,99487.02
2022-08-11T18:14:26.758Z,99478.61
2022-08-11T18:17:16.644Z,99476.02
2022-08-11T18:20:06.451Z,99475.23
2022-08-11T18:22:59.000Z,99475.34
2022-08-11T18:25:51.129Z,99468.72
2022-08-11T18:28:43.046Z,99466.62
2022-08-11T18:31:33.664Z,99474.36
2022-08-11T18:34:25.414Z,99469.08
2022-08-11T18:37:39.346Z,99467.84
2022-08-11T18:40:26.429Z,99476.84
2022-08-11T18:43:22.697Z,99469.30
2022-08-11T18:46:15.374Z,99468.00
2022-08-11T18:49:09.589Z,99461.77
2022-08-11T18:51:58.998Z,99467.30
2022-08-11T18:54:52.690Z,99468.27
2022-08-11T18:57:49.878Z,99465.20
2022-08-11T19:00:32.000Z,99476.98
2022-08-11T19:03:21.706Z,99473.02
2022-08-11T19:06:38.551Z,99470.92
2022-08-11T19:09:09.500Z,99475.15
2022-08-11T19:11:59.904Z,99473.48
2022-08-11T19:14:53.513Z,99474.06
2022-08-11T19:17:43.823Z,99470.18
2022-08-11T19:20:36.373Z,99480.99
2022-08-11T19:23:27.453Z,99485.52
2022-08-11T19:26:17.860Z,99487.39
2022-08-11T19:29:08.413Z,99489.22
2022-08-11T19:31:58.091Z,99491.53
2022-08-11T19:34:47.623Z,99506.42
2022-08-11T19:37:44.512Z,99526.64
2022-08-11T19:40:28.900Z,99558.58
2022-08-11T19:43:26.179Z,99572.56
2022-08-11T19:46:11.553Z,99562.47
2022-08-11T19:49:02.861Z,99558.23
2022-08-11T19:51:54.627Z,99564.30
2022-08-11T19:54:49.242Z,99557.59
2022-08-11T19:57:40.500Z,99551.19
2022-08-11T20:00:35.669Z,99550.50
2022-08-11T20:03:28.075Z,99535.63
2022-08-11T20:06:22.672Z,99521.06
2022-08-11T20:09:15.814Z,99530.28
2022-08-11T20:12:11.063Z,99524.72
2022-08-11T20:15:01.610Z,99525.97
2022-08-11T20:17:54.746Z,99538.84
2022-08-11T20:20:45.463Z,99533.47
2022-08-11T20:23:36.635Z,99533.95
2022-08-11T20:26:31.064Z,99541.58
2022-08-11T20:29:19.877Z,99535.77
2022-08-11T20:32:10.211Z,99533.08
2022-08-11T20:35:00.523Z,99523.23
2022-08-11T20:37:51.731Z,99530.00
2022-08-11T20:40:43.373Z,99521.69
2022-08-11T20:44:05.959Z,99517.31
2022-08-11T20:46:26.349Z,99527.73
2022-08-11T20:49:16.179Z,99522.36
2022-08-11T20:52:07.498Z,99523.75
2022-08-11T20:54:58.861Z,99518.02
2022-08-11T20:58:04.798Z,99514.52
2022-08-11T21:03:36.479Z,99507.06
2022-08-11T21:06:31.568Z,99508.06
2022-08-11T21:09:19.653Z,99511.63
2022-08-11T21:12:13.352Z,99518.34
2022-08-11T21:15:04.930Z,99519.68
2022-08-11T21:18:00.640Z,99521.94
2022-08-11T21:20:46.414Z,99523.80
2022-08-11T21:23:37.685Z,99524.80
2022-08-11T21:26:28.627Z,99527.58
2022-08-11T21:29:18.616Z,99533.98
2022-08-11T21:32:08.446Z,99542.66
2022-08-11T21:34:59.215Z,99556.57
2022-08-11T21:37:50.299Z,99557.09
2022-08-11T21:40:40.390Z,99565.23
2022-08-11T21:43:29.920Z,99575.59
2022-08-11T21:46:21.625Z,99597.63
2022-08-11T21:49:11.372Z,99605.77
2022-08-11T21:52:02.732Z,99604.98
2022-08-11T21:54:52.297Z,99625.67
2022-08-11T21:57:48.089Z,99634.20
2022-08-11T22:00:33.778Z,99640.05
2022-08-11T22:03:23.918Z,99652.60
2022-08-11T22:06:14.877Z,99667.77
2022-08-11T22:09:04.488Z,99669.62
2022-08-11T22:12:33.617Z,99656.73
2022-08-11T22:14:45.703Z,99661.72
2022-08-11T22:17:35.285Z,99655.12
2022-08-11T22:20:25.835Z,99652.14
2022-08-11T22:23:16.214Z,99649.17
2022-08-11T22:26:07.345Z,99640.44
2022-08-11T22:28:57.874Z,99632.10
2022-08-11T22:31:47.710Z,99637.65
2022-08-11T22:34:52.577Z,99629.34
2022-08-11T22:37:30.176Z,99628.61
2022-08-11T22:40:19.707Z,99636.83
2022-08-11T22:43:09.177Z,99638.28
2022-08-11T22:45:58.608Z,99632.64
2022-08-11T22:48:49.389Z,99627.89
2022-08-11T22:51:39.068Z,99622.63
2022-08-11T22:54:29.144Z,99621.88
2022-08-11T22:57:19.017Z,99628.68
2022-08-11T23:00:08.943Z,99629.25
2022-08-11T23:02:59.404Z,99634.70
2022-08-11T23:05:49.190Z,99644.61
2022-08-11T23:08:39.363Z,99646.05
2022-08-11T23:12:00.228Z,99649.69
2022-08-11T23:14:20.137Z,99650.69
2022-08-11T23:17:09.719Z,99656.54
2022-08-11T23:20:12.053Z,99654.41
2022-08-11T23:22:51.950Z,99651.82
2022-08-11T23:25:41.850Z,99657.77
2022-08-11T23:28:32.684Z,99654.27
2022-08-11T23:31:22.511Z,99649.05
2022-08-11T23:35:02.279Z,99655.36
2022-08-11T23:37:04.344Z,99660.44
2022-08-11T23:39:54.064Z,99657.98
2022-08-11T23:42:44.187Z,99655.04
2022-08-11T23:45:35.390Z,99655.70
2022-08-11T23:48:24.651Z,99659.48
2022-08-11T23:51:14.924Z,99665.37
2022-08-11T23:54:07.743Z,99686.43
2022-08-11T23:56:57.473Z,99687.87
2022-08-11T23:59:47.034Z,99687.59
